Terminal Aerodrome Forecast
Issued by NWS

Home | Current Version | Previous Version | Graphics & Text | Print | Product List | Glossary On
Versions: 1 2 3 4 5 6 7 8 9 10 11 12 13 14 15 16 17
000
FTUS42 KMHX 212108 AAA
TAFISO
TAF AMD
KISO 212108Z 2121/2218 23012KT P6SM SHRA BKN009 OVC020
     FM212200 36004KT P6SM OVC007
     FM220600 34003KT P6SM SCT007
     FM221200 36008KT P6SM SCT030
      AMD LTD TO CLD VIS AND WIND=

USA.gov is the U.S. government's official web portal to all federal, state and local government web resources and services.